Altoona, Kansas
Current Conditions -  °F | °C
As of 2:25 PM on Monday 22 Dec 2014 (Local Time) from KCNU Reporting Station
Overcast Overcast  
Wind Chill: 43°   Ceiling: 1000
Heat Index: 49°   Visibility: 10mi
Dew Point: 47°   Wind: 15mph
Humidity: 93%   Direction: 260°W
Pressure: 29.48"   Gusts: NA
Location:  37.52°N, 95.66°W
Report Text: KCNU 222025Z AUTO 26013KT 10SM BKN010 BKN050 OVC065 09/08 A2948 RMK AO2 RAE09 P0000 T00940083
Loading
Personal Weather Stations






























Interactive Weather Map New forecast layout! Learn more

10-Day Weather Forecast

Advertisements
Track Severe Weather on mobile